Time;durP1;ratioP1;P1;durP2;ratioP2;P2;SDS_P1;SDS_P2;PMS_P1;PMS_P2;Temp;Humidity;BMP_temperature;BMP_pressure;BME280_temperature;BME280_humidity;BME280_pressure;Samples;Min_cycle;Max_cycle;Signal;HPM_P1;HPM_P2
2022/08/22 00:01:58;;;;;;;5.90;5.30;;;19.70;99.90;;;;;;5065803;28;20385;-81
2022/08/22 00:04:53;;;;;;;6.70;6.10;;;19.80;99.90;;;;;;5105996;28;20468;-82
2022/08/22 00:07:49;;;;;;;6.27;5.67;;;19.80;99.90;;;;;;5128106;28;20886;-82
2022/08/22 00:10:52;;;;;;;7.70;5.23;;;19.80;99.90;;;;;;5128038;28;20430;-81
2022/08/22 00:14:09;;;;;;;6.50;5.00;;;19.90;99.90;;;;;;5127962;28;20384;-82
2022/08/22 00:17:20;;;;;;;6.97;6.10;;;19.80;99.90;;;;;;5136248;28;20470;-83
2022/08/22 00:20:21;;;;;;;5.20;4.77;;;19.80;99.90;;;;;;5138959;28;20506;-80
2022/08/22 00:23:31;;;;;;;9.73;6.30;;;19.80;99.90;;;;;;5138535;28;20479;-80
2022/08/22 00:26:43;;;;;;;5.97;5.47;;;19.80;99.90;;;;;;5137620;28;20390;-80
2022/08/22 00:29:40;;;;;;;6.10;5.60;;;19.80;99.90;;;;;;5128221;28;20376;-82
2022/08/22 00:32:34;;;;;;;8.17;5.73;;;19.70;99.90;;;;;;5112570;28;20526;-81
2022/08/22 00:35:25;;;;;;;6.90;6.20;;;19.70;99.90;;;;;;5127065;28;20397;-83
2022/08/22 00:38:32;;;;;;;6.23;5.63;;;19.70;99.90;;;;;;5127202;28;20711;-82
2022/08/22 00:41:47;;;;;;;4.80;4.40;;;19.50;99.90;;;;;;5128098;28;20480;-82
2022/08/22 00:45:01;;;;;;;6.23;5.27;;;19.30;99.90;;;;;;5130431;28;20834;-82
2022/08/22 00:48:00;;;;;;;7.80;6.20;;;19.20;99.90;;;;;;5128057;28;20391;-81
2022/08/22 00:51:24;;;;;;;6.10;5.40;;;19.30;99.90;;;;;;5128675;28;20388;-81
2022/08/22 00:54:38;;;;;;;6.13;5.37;;;19.40;99.90;;;;;;5116363;28;20378;-82
2022/08/22 00:58:00;;;;;;;9.30;5.40;;;19.50;99.90;;;;;;5128170;28;20481;-82
2022/08/22 01:00:52;;;;;;;6.87;6.20;;;19.50;99.90;;;;;;5099481;28;20452;-82
2022/08/22 01:03:52;;;;;;;6.17;5.50;;;19.40;99.90;;;;;;5127730;28;20391;-82
2022/08/22 01:07:01;;;;;;;6.80;6.20;;;19.40;99.90;;;;;;5126790;28;20399;-82
2022/08/22 01:10:14;;;;;;;5.10;4.60;;;19.30;99.90;;;;;;5127587;28;20718;-81
2022/08/22 01:13:26;;;;;;;6.50;5.30;;;19.20;99.90;;;;;;5127620;28;20508;-82
2022/08/22 01:16:31;;;;;;;6.70;5.47;;;19.20;99.90;;;;;;5128300;28;20383;-82
2022/08/22 01:19:50;;;;;;;7.20;6.30;;;19.20;99.90;;;;;;5132793;28;20378;-79
2022/08/22 01:23:05;;;;;;;7.63;5.87;;;19.10;99.90;;;;;;5135617;28;20406;-79
2022/08/22 01:26:20;;;;;;;9.83;5.97;;;19.20;99.90;;;;;;5133209;28;20383;-79
2022/08/22 01:29:44;;;;;;;6.03;4.87;;;19.10;99.90;;;;;;5122805;28;20448;-79
2022/08/22 01:33:00;;;;;;;6.47;5.90;;;19.10;99.90;;;;;;5111848;28;20516;-78
2022/08/22 01:36:07;;;;;;;5.93;5.40;;;19.10;99.90;;;;;;5118021;28;20705;-79
2022/08/22 01:39:25;;;;;;;8.70;6.60;;;19.10;99.90;;;;;;5133101;28;20379;-78
2022/08/22 01:42:33;;;;;;;6.17;5.60;;;19.00;99.90;;;;;;5132952;28;20410;-79
2022/08/22 01:45:37;;;;;;;12.23;7.57;;;19.00;99.90;;;;;;5133831;28;20468;-78
2022/08/22 01:48:43;;;;;;;8.83;5.63;;;18.90;99.90;;;;;;5133065;28;20401;-79
2022/08/22 01:51:43;;;;;;;9.03;5.90;;;18.90;99.90;;;;;;5133226;28;20483;-79
2022/08/22 01:54:44;;;;;;;8.23;6.40;;;18.90;99.90;;;;;;5132284;28;20399;-81
2022/08/22 01:57:29;;;;;;;6.80;6.00;;;18.90;99.90;;;;;;5131148;28;20503;-79
2022/08/22 02:00:17;;;;;;;6.00;5.40;;;18.90;99.90;;;;;;5135189;28;20436;-79
2022/08/22 02:03:24;;;;;;;18.43;6.73;;;18.90;99.90;;;;;;5120264;28;20443;-80
2022/08/22 02:06:16;;;;;;;8.90;6.20;;;18.80;99.90;;;;;;5135574;28;20391;-80
2022/08/22 02:09:09;;;;;;;10.07;6.57;;;18.80;99.90;;;;;;5135915;28;20376;-79
2022/08/22 02:12:01;;;;;;;6.77;6.10;;;18.70;99.90;;;;;;5135729;28;20442;-79
2022/08/22 02:15:02;;;;;;;6.30;5.80;;;18.70;99.90;;;;;;5116309;28;20910;-82
2022/08/22 02:18:17;;;;;;;9.67;6.63;;;18.70;99.90;;;;;;5127381;28;20384;-82
2022/08/22 02:21:14;;;;;;;7.10;6.13;;;18.70;99.90;;;;;;5114973;28;20387;-81
2022/08/22 02:24:13;;;;;;;11.07;7.83;;;18.70;99.90;;;;;;5112723;28;20475;-81
2022/08/22 02:27:24;;;;;;;8.63;7.83;;;18.70;99.90;;;;;;5126888;28;20436;-81
2022/08/22 02:30:14;;;;;;;7.93;6.63;;;18.60;99.90;;;;;;5111354;28;20436;-82
2022/08/22 02:33:06;;;;;;;7.43;6.63;;;18.60;99.90;;;;;;5127046;28;20435;-81
2022/08/22 02:35:59;;;;;;;7.20;6.50;;;18.60;99.90;;;;;;5126683;28;20449;-82
2022/08/22 02:39:15;;;;;;;6.87;6.27;;;18.60;99.90;;;;;;5111595;28;20380;-83
2022/08/22 02:42:25;;;;;;;7.40;6.60;;;18.50;99.90;;;;;;5126570;28;20456;-83
2022/08/22 02:45:45;;;;;;;7.93;5.77;;;18.50;99.90;;;;;;5126422;28;20461;-82
2022/08/22 02:48:56;;;;;;;7.63;6.93;;;18.50;99.90;;;;;;5126671;28;20395;-81
2022/08/22 02:51:52;;;;;;;11.47;7.00;;;18.50;99.90;;;;;;5126998;28;20546;-82
2022/08/22 02:55:02;;;;;;;7.47;6.63;;;18.50;99.90;;;;;;5129032;28;20763;-82
2022/08/22 02:58:10;;;;;;;6.20;5.70;;;18.40;99.90;;;;;;5118797;28;20533;-81
2022/08/22 03:01:34;;;;;;;8.23;6.10;;;18.40;99.90;;;;;;5129751;28;20398;-81
2022/08/22 03:04:25;;;;;;;7.77;6.63;;;18.40;99.90;;;;;;5120904;28;20395;-81
2022/08/22 03:07:21;;;;;;;6.80;6.07;;;18.30;99.90;;;;;;5129929;28;20495;-81
2022/08/22 03:10:22;;;;;;;7.97;7.03;;;18.30;99.90;;;;;;5129554;28;20383;-81
2022/08/22 03:13:13;;;;;;;7.73;6.93;;;18.30;99.90;;;;;;5129254;28;20443;-81
2022/08/22 03:16:05;;;;;;;8.43;6.73;;;18.20;99.90;;;;;;5129663;28;20380;-81
2022/08/22 03:19:13;;;;;;;9.90;6.60;;;18.20;99.90;;;;;;5130115;28;20379;-82
2022/08/22 03:22:14;;;;;;;7.67;6.97;;;18.10;99.90;;;;;;5130228;28;20383;-81
2022/08/22 03:25:28;;;;;;;8.90;6.40;;;18.00;99.90;;;;;;5129111;28;20477;-82
2022/08/22 03:28:20;;;;;;;8.80;5.90;;;17.90;99.90;;;;;;5129447;28;20401;-81
2022/08/22 03:31:13;;;;;;;6.97;6.27;;;18.00;99.90;;;;;;5132134;28;20478;-81
2022/08/22 03:34:19;;;;;;;7.53;6.93;;;18.00;99.90;;;;;;5131839;28;20391;-81
2022/08/22 03:37:14;;;;;;;8.40;7.23;;;18.00;99.90;;;;;;5130419;28;20980;-81
2022/08/22 03:40:05;;;;;;;8.03;7.23;;;18.00;99.90;;;;;;5129003;28;20387;-81
2022/08/22 03:43:16;;;;;;;7.27;6.23;;;18.00;99.90;;;;;;5130371;28;20704;-81
2022/08/22 03:46:32;;;;;;;8.50;6.93;;;18.00;99.90;;;;;;5125320;28;20937;-81
2022/08/22 03:49:52;;;;;;;7.97;6.80;;;17.90;99.90;;;;;;5113157;28;20452;-82
2022/08/22 03:53:06;;;;;;;9.97;6.77;;;17.80;99.90;;;;;;5129617;28;20474;-82
2022/08/22 03:56:12;;;;;;;7.47;5.90;;;17.80;99.90;;;;;;5121443;28;20415;-82
2022/08/22 03:59:21;;;;;;;8.13;7.43;;;17.70;99.90;;;;;;5109066;28;20454;-84
2022/08/22 04:02:36;;;;;;;8.80;7.90;;;17.80;99.90;;;;;;5109372;28;20434;-84
2022/08/22 04:05:40;;;;;;;8.03;6.90;;;17.80;99.90;;;;;;5096471;28;20431;-83
2022/08/22 04:08:47;;;;;;;8.70;7.40;;;17.80;99.90;;;;;;5110843;28;20391;-83
2022/08/22 04:11:51;;;;;;;11.27;8.10;;;17.80;99.90;;;;;;5118947;28;20439;-81
2022/08/22 04:15:04;;;;;;;9.87;7.37;;;17.70;99.90;;;;;;5118492;28;20419;-82
2022/08/22 04:18:06;;;;;;;10.10;7.37;;;17.70;99.90;;;;;;5102201;28;20430;-82
2022/08/22 04:21:28;;;;;;;11.30;7.20;;;17.70;99.90;;;;;;5095078;28;20430;-82
2022/08/22 04:24:35;;;;;;;8.03;7.33;;;17.50;99.90;;;;;;5107206;28;20409;-82
2022/08/22 04:27:39;;;;;;;7.77;7.17;;;17.60;99.90;;;;;;5106760;28;20690;-82
2022/08/22 04:30:33;;;;;;;7.57;6.83;;;17.70;99.90;;;;;;5107201;28;20810;-82
2022/08/22 04:33:32;;;;;;;7.10;6.40;;;17.70;99.90;;;;;;5107302;28;20471;-81
2022/08/22 04:36:25;;;;;;;7.33;6.53;;;17.60;99.90;;;;;;5107684;28;20781;-82
2022/08/22 04:39:34;;;;;;;17.00;7.40;;;17.70;99.90;;;;;;5107677;28;20457;-82
2022/08/22 04:42:31;;;;;;;10.63;7.40;;;17.70;99.90;;;;;;5108464;28;20384;-82
2022/08/22 04:45:21;;;;;;;7.90;7.10;;;17.70;99.90;;;;;;5124320;28;20496;-82
2022/08/22 04:48:20;;;;;;;9.47;8.67;;;17.60;99.90;;;;;;5127998;28;20409;-81
2022/08/22 04:51:11;;;;;;;7.87;7.17;;;17.60;99.90;;;;;;5126887;28;20395;-83
2022/08/22 04:54:29;;;;;;;10.27;8.20;;;17.60;99.90;;;;;;5126820;28;20406;-82
2022/08/22 04:57:29;;;;;;;9.53;8.30;;;17.60;99.90;;;;;;5114308;28;20431;-82
2022/08/22 05:00:15;;;;;;;12.63;7.13;;;17.60;99.90;;;;;;5127113;28;20383;-80
2022/08/22 05:03:01;;;;;;;8.20;7.40;;;17.60;99.90;;;;;;5127030;28;20491;-82
2022/08/22 05:05:48;;;;;;;8.40;7.47;;;17.60;99.90;;;;;;5111649;28;20388;-82
2022/08/22 05:08:37;;;;;;;9.27;7.83;;;17.60;99.90;;;;;;5122431;28;20380;-81
2022/08/22 05:11:23;;;;;;;8.30;7.50;;;17.70;99.90;;;;;;5110185;28;20772;-81
2022/08/22 05:14:17;;;;;;;10.43;8.30;;;17.70;99.90;;;;;;5127399;28;20387;-80
2022/08/22 05:17:04;;;;;;;7.97;7.27;;;17.80;99.90;;;;;;5124350;28;20415;-81
2022/08/22 05:19:53;;;;;;;8.60;7.67;;;17.80;99.90;;;;;;5053408;28;20476;-81
2022/08/22 05:22:43;;;;;;;8.53;7.67;;;17.80;99.90;;;;;;5127271;28;20395;-82
2022/08/22 05:25:33;;;;;;;8.20;7.50;;;17.80;99.90;;;;;;5120906;28;20443;-81
2022/08/22 05:28:34;;;;;;;8.60;7.70;;;17.90;99.90;;;;;;5106485;28;20402;-81
2022/08/22 05:31:27;;;;;;;8.60;7.70;;;17.90;99.90;;;;;;5107549;28;20470;-81
2022/08/22 05:34:19;;;;;;;7.30;6.60;;;17.90;99.90;;;;;;5110890;28;20457;-80
2022/08/22 05:37:24;;;;;;;9.00;7.67;;;18.00;99.90;;;;;;5104134;28;20457;-81
2022/08/22 05:40:18;;;;;;;8.37;7.57;;;18.10;99.90;;;;;;5124882;28;20429;-82
2022/08/22 05:43:03;;;;;;;8.23;7.43;;;18.10;99.90;;;;;;5105623;28;20408;-82
2022/08/22 05:45:48;;;;;;;8.47;7.67;;;18.00;99.90;;;;;;5105178;28;20520;-82
2022/08/22 05:48:41;;;;;;;8.37;7.20;;;17.90;99.90;;;;;;5105337;28;20400;-82
2022/08/22 05:51:39;;;;;;;8.67;7.77;;;17.80;99.90;;;;;;5106518;28;20467;-82
2022/08/22 05:54:29;;;;;;;8.00;7.30;;;18.00;99.90;;;;;;5117091;28;20488;-82
2022/08/22 05:57:25;;;;;;;8.07;7.27;;;17.80;99.90;;;;;;5114705;28;20772;-82
2022/08/22 06:00:17;;;;;;;30.27;9.10;;;18.10;99.90;;;;;;5107703;28;20395;-82
2022/08/22 06:03:35;;;;;;;9.70;7.53;;;18.10;99.90;;;;;;5116596;28;20508;-82
2022/08/22 06:06:20;;;;;;;9.97;8.23;;;18.30;99.90;;;;;;5107075;28;20405;-82
2022/08/22 06:09:25;;;;;;;8.87;7.97;;;18.30;99.90;;;;;;5118680;28;20476;-82
2022/08/22 06:12:16;;;;;;;9.97;8.97;;;18.40;99.90;;;;;;5111645;28;20458;-82
2022/08/22 06:15:16;;;;;;;9.13;6.90;;;18.50;99.90;;;;;;5120751;28;20439;-81
2022/08/22 06:18:04;;;;;;;10.30;7.87;;;18.50;99.90;;;;;;5120548;28;20475;-81
2022/08/22 06:21:02;;;;;;;9.60;7.63;;;18.60;99.90;;;;;;5117579;28;20481;-82
2022/08/22 06:23:55;;;;;;;9.43;7.30;;;18.60;99.90;;;;;;5121956;28;20412;-82
2022/08/22 06:26:44;;;;;;;7.97;7.20;;;18.60;99.90;;;;;;5105737;28;20430;-83
2022/08/22 06:29:38;;;;;;;13.90;9.20;;;18.60;99.90;;;;;;5106532;28;20449;-82
2022/08/22 06:32:28;;;;;;;7.60;6.80;;;18.70;99.90;;;;;;5123966;28;20457;-82
2022/08/22 06:36:29;;;;;;;8.40;7.60;;;18.80;99.90;;;;;;5112424;28;20888;-82
2022/08/22 06:38:52;;;;;;;9.83;7.13;;;18.80;99.90;;;;;;5110629;28;20907;-78
2022/08/22 06:42:01;;;;;;;8.27;7.33;;;18.80;99.90;;;;;;5119863;27;20510;-82
2022/08/22 06:44:49;;;;;;;11.43;6.93;;;18.80;99.90;;;;;;5118536;27;20480;-81
2022/08/22 06:47:41;;;;;;;8.87;8.00;;;18.60;99.90;;;;;;5111743;28;20447;-82
2022/08/22 06:50:36;;;;;;;9.40;8.07;;;18.70;99.90;;;;;;5114798;27;20473;-80
2022/08/22 06:53:37;;;;;;;12.83;7.73;;;18.70;99.90;;;;;;5111410;28;20457;-80
2022/08/22 06:56:28;;;;;;;8.83;7.87;;;18.70;99.90;;;;;;5119393;28;20500;-81
2022/08/22 06:59:16;;;;;;;8.57;7.77;;;19.00;99.90;;;;;;5100966;28;20473;-81
2022/08/22 07:02:23;;;;;;;10.90;7.07;;;19.20;99.90;;;;;;5115675;27;20505;-81
2022/08/22 07:05:15;;;;;;;12.70;8.37;;;19.20;99.90;;;;;;5120443;28;20497;-82
2022/08/22 07:08:07;;;;;;;10.37;7.77;;;19.20;99.90;;;;;;5109088;27;20792;-81
2022/08/22 07:11:20;;;;;;;8.43;7.43;;;19.30;99.90;;;;;;5101623;28;20480;-82
2022/08/22 07:14:07;;;;;;;8.40;7.70;;;19.00;99.90;;;;;;5110143;28;20468;-80
2022/08/22 07:16:57;;;;;;;9.93;7.27;;;18.90;99.90;;;;;;5114297;28;20570;-82
2022/08/22 07:19:58;;;;;;;10.60;7.03;;;18.80;99.90;;;;;;5115731;28;20419;-82
2022/08/22 07:22:52;;;;;;;8.33;7.40;;;18.80;99.90;;;;;;5117965;27;20519;-81
2022/08/22 07:25:53;;;;;;;7.43;6.77;;;18.90;99.90;;;;;;5115881;28;20431;-82
2022/08/22 07:28:45;;;;;;;9.37;7.07;;;18.90;99.90;;;;;;5102928;28;20560;-82
2022/08/22 07:31:54;;;;;;;8.53;7.67;;;19.20;99.90;;;;;;5098695;28;20473;-82
2022/08/22 07:35:08;;;;;;;9.17;6.70;;;19.40;99.90;;;;;;5122409;27;20419;-82
2022/08/22 07:38:18;;;;;;;9.17;8.20;;;19.60;99.90;;;;;;5114645;28;20470;-82
2022/08/22 07:41:21;;;;;;;8.67;7.07;;;20.00;99.90;;;;;;5112840;28;20468;-82
2022/08/22 07:44:16;;;;;;;10.33;6.97;;;20.20;99.90;;;;;;5110353;28;20501;-82
2022/08/22 07:47:13;;;;;;;7.03;6.37;;;20.30;99.90;;;;;;5095355;28;20896;-82
2022/08/22 07:50:03;;;;;;;8.23;6.87;;;20.40;99.90;;;;;;5091702;28;20440;-82
2022/08/22 07:52:49;;;;;;;6.43;5.83;;;20.50;99.90;;;;;;5096662;28;20665;-82
2022/08/22 07:55:37;;;;;;;7.80;7.00;;;20.60;99.90;;;;;;5090255;28;20444;-80
2022/08/22 07:58:25;;;;;;;7.37;6.57;;;20.50;99.90;;;;;;5094217;28;20471;-80
2022/08/22 08:01:16;;;;;;;10.77;6.37;;;20.30;99.90;;;;;;5092746;28;20478;-82
2022/08/22 08:04:09;;;;;;;7.30;6.60;;;20.40;99.90;;;;;;5101549;28;20869;-81
2022/08/22 08:06:57;;;;;;;6.73;6.00;;;20.60;99.90;;;;;;5103584;28;20439;-80
2022/08/22 08:09:49;;;;;;;7.57;6.80;;;20.90;99.90;;;;;;5109911;28;20443;-80
2022/08/22 08:12:40;;;;;;;6.50;5.90;;;21.10;99.90;;;;;;5103077;28;20513;-82
2022/08/22 08:15:26;;;;;;;6.77;5.73;;;21.30;99.90;;;;;;5052416;28;21083;-80
2022/08/22 08:18:24;;;;;;;6.00;5.50;;;21.50;99.90;;;;;;5057120;28;20426;-79
2022/08/22 08:21:25;;;;;;;6.90;5.30;;;21.60;99.90;;;;;;5049036;28;20493;-80
2022/08/22 08:24:15;;;;;;;6.10;4.93;;;21.50;99.90;;;;;;5048883;28;20434;-81
2022/08/22 08:30:17;;;;;;;7.27;4.93;;;21.80;99.90;;;;;;5048725;28;20445;-82
2022/08/22 08:33:05;;;;;;;6.60;4.30;;;22.00;99.90;;;;;;5007403;28;20526;-81
2022/08/22 08:35:54;;;;;;;6.90;4.67;;;22.10;99.90;;;;;;5014775;28;20431;-81
2022/08/22 08:38:51;;;;;;;6.20;4.63;;;22.20;99.90;;;;;;5019386;28;20423;-82
2022/08/22 08:41:52;;;;;;;5.63;4.50;;;22.30;99.90;;;;;;5002824;28;20468;-80
2022/08/22 08:45:04;;;;;;;4.90;4.10;;;22.20;99.90;;;;;;5012905;28;20542;-81
2022/08/22 08:48:14;;;;;;;7.70;4.60;;;22.00;99.90;;;;;;5055649;28;20453;-83
2022/08/22 08:51:18;;;;;;;5.67;4.57;;;22.00;99.90;;;;;;5046093;28;20500;-82
2022/08/22 08:54:28;;;;;;;10.43;4.13;;;22.30;99.90;;;;;;5046387;28;20505;-80
2022/08/22 08:57:39;;;;;;;3.97;3.60;;;22.70;99.90;;;;;;5049082;28;21025;-83
2022/08/22 09:00:48;;;;;;;4.03;3.63;;;22.90;99.90;;;;;;5026099;28;21037;-83
2022/08/22 09:04:03;;;;;;;3.53;3.17;;;22.90;99.90;;;;;;5076187;28;20435;-83
2022/08/22 09:07:20;;;;;;;4.03;3.63;;;23.10;99.90;;;;;;5113269;27;20965;-82
2022/08/22 09:10:38;;;;;;;6.07;4.17;;;23.50;99.90;;;;;;5114755;28;20447;-80
2022/08/22 09:13:46;;;;;;;9.00;4.40;;;23.50;99.90;;;;;;5113833;28;21580;-81
2022/08/22 09:17:01;;;;;;;8.20;4.63;;;23.70;99.90;;;;;;5118701;27;20976;-83
2022/08/22 09:20:06;;;;;;;3.27;3.00;;;23.60;99.90;;;;;;5123261;27;20778;-83
2022/08/22 09:23:30;;;;;;;3.80;3.30;;;24.00;99.90;;;;;;5119169;28;20488;-84
2022/08/22 09:26:37;;;;;;;7.20;3.77;;;24.10;99.90;;;;;;5098696;28;20431;-82
2022/08/22 09:29:38;;;;;;;8.70;4.40;;;23.90;99.90;;;;;;5110625;28;20429;-81
2022/08/22 09:33:02;;;;;;;4.50;3.90;;;23.80;99.90;;;;;;5117909;27;20458;-81
2022/08/22 09:36:01;;;;;;;4.27;2.87;;;23.90;99.90;;;;;;5113787;28;20446;-81
2022/08/22 09:38:55;;;;;;;5.20;3.87;;;23.60;99.90;;;;;;5099759;28;20438;-80
2022/08/22 09:41:58;;;;;;;5.10;3.70;;;24.30;99.90;;;;;;5093328;28;20461;-80
2022/08/22 09:45:08;;;;;;;4.23;3.83;;;24.00;99.90;;;;;;5103512;28;20482;-80
2022/08/22 09:48:01;;;;;;;3.80;3.47;;;23.90;99.90;;;;;;5120798;28;20426;-82
2022/08/22 09:51:00;;;;;;;3.30;3.00;;;24.10;99.90;;;;;;5106909;28;20505;-81
2022/08/22 09:54:09;;;;;;;7.07;3.53;;;24.40;99.90;;;;;;5103767;28;20453;-82
2022/08/22 09:57:00;;;;;;;4.30;3.30;;;24.90;99.90;;;;;;5103021;28;20502;-82
2022/08/22 10:00:16;;;;;;;4.70;2.83;;;25.30;99.90;;;;;;5108185;28;20469;-83
2022/08/22 10:03:11;;;;;;;3.47;2.60;;;25.40;99.90;;;;;;5107557;28;20537;-85
2022/08/22 10:06:13;;;;;;;4.33;3.00;;;25.50;99.90;;;;;;5111138;28;20427;-83
2022/08/22 10:09:09;;;;;;;5.00;3.13;;;25.60;99.90;;;;;;5112793;28;20433;-82
2022/08/22 10:12:05;;;;;;;3.73;3.40;;;25.70;99.90;;;;;;5112752;28;20462;-81
2022/08/22 10:15:14;;;;;;;3.30;3.00;;;25.80;99.90;;;;;;5107788;28;20504;-81
2022/08/22 10:18:13;;;;;;;4.57;3.70;;;25.50;99.90;;;;;;5095522;28;20420;-82
2022/08/22 10:21:12;;;;;;;4.00;3.40;;;25.30;99.90;;;;;;5105106;28;20521;-81
2022/08/22 10:24:08;;;;;;;3.30;3.00;;;25.10;99.90;;;;;;5111463;28;20418;-83
2022/08/22 10:26:58;;;;;;;4.10;3.27;;;25.00;99.90;;;;;;5093823;28;20415;-84
2022/08/22 10:30:07;;;;;;;4.70;3.10;;;25.20;99.90;;;;;;5107585;28;20482;-83
2022/08/22 10:33:08;;;;;;;6.00;3.10;;;25.30;99.90;;;;;;5097244;28;20470;-82
2022/08/22 10:36:06;;;;;;;5.00;3.20;;;25.30;99.80;;;;;;5099265;28;20431;-83
2022/08/22 10:38:54;;;;;;;4.13;3.70;;;25.30;99.20;;;;;;5112928;28;20432;-82
2022/08/22 10:42:00;;;;;;;2.90;2.70;;;25.30;99.70;;;;;;5113707;28;20536;-83
2022/08/22 10:45:12;;;;;;;6.57;3.50;;;25.40;98.40;;;;;;5116594;28;20461;-83
2022/08/22 10:48:20;;;;;;;3.93;3.13;;;25.10;99.70;;;;;;5111879;28;20521;-83
2022/08/22 10:51:30;;;;;;;3.17;2.33;;;25.70;99.90;;;;;;5117179;28;20439;-84
2022/08/22 10:54:36;;;;;;;7.00;3.30;;;25.30;98.70;;;;;;5105410;28;20499;-82
2022/08/22 10:57:40;;;;;;;5.70;3.70;;;25.70;96.30;;;;;;5104107;28;20450;-83
2022/08/22 11:00:49;;;;;;;4.33;3.03;;;25.60;96.10;;;;;;5106194;28;20483;-83
2022/08/22 11:03:49;;;;;;;3.87;3.57;;;26.00;95.70;;;;;;5116623;28;20438;-83
2022/08/22 11:07:00;;;;;;;7.63;3.33;;;26.40;93.20;;;;;;5117124;28;20970;-82
2022/08/22 11:09:53;;;;;;;4.50;3.70;;;26.40;93.20;;;;;;5117129;28;20511;-85
2022/08/22 11:12:48;;;;;;;4.60;3.33;;;26.40;94.10;;;;;;5111609;28;20521;-83
2022/08/22 11:15:55;;;;;;;3.27;2.50;;;25.80;93.80;;;;;;5126029;27;20742;-81
2022/08/22 11:19:15;;;;;;;2.70;2.50;;;26.00;92.30;;;;;;5112138;27;20439;-82
2022/08/22 11:22:24;;;;;;;3.50;3.10;;;26.20;93.30;;;;;;5096615;27;20430;-82
2022/08/22 11:25:40;;;;;;;5.50;2.60;;;26.70;90.50;;;;;;5111146;28;20511;-82
2022/08/22 11:28:59;;;;;;;2.50;2.30;;;28.00;86.80;;;;;;5122737;27;20501;-83
2022/08/22 11:32:15;;;;;;;4.90;3.47;;;28.30;84.50;;;;;;5102989;28;20469;-82
2022/08/22 11:35:22;;;;;;;4.03;2.80;;;28.40;83.50;;;;;;5110124;28;20406;-83
2022/08/22 11:38:25;;;;;;;3.67;2.67;;;27.80;81.90;;;;;;5127773;28;20426;-83
2022/08/22 11:41:25;;;;;;;3.33;2.90;;;27.60;80.30;;;;;;5115586;28;20565;-82
2022/08/22 11:44:18;;;;;;;2.90;2.47;;;28.30;83.90;;;;;;5107344;28;20470;-83
2022/08/22 11:47:10;;;;;;;3.20;2.73;;;27.80;77.00;;;;;;5116377;27;20431;-80
2022/08/22 11:50:17;;;;;;;2.47;2.27;;;27.40;76.80;;;;;;5110914;28;20495;-83
2022/08/22 11:53:40;;;;;;;3.20;2.70;;;26.90;79.20;;;;;;5112941;27;20469;-82
2022/08/22 11:56:33;;;;;;;8.13;3.30;;;27.60;77.70;;;;;;5111097;27;20501;-82
2022/08/22 11:59:32;;;;;;;3.60;2.77;;;27.20;75.50;;;;;;5111126;28;20435;-82
2022/08/22 12:02:47;;;;;;;4.00;3.07;;;27.70;75.30;;;;;;5108500;28;20449;-81
2022/08/22 12:05:39;;;;;;;2.80;2.60;;;27.90;74.50;;;;;;5065342;28;20447;-80
2022/08/22 12:08:59;;;;;;;2.77;2.30;;;28.50;70.60;;;;;;5062473;28;20440;-82
2022/08/22 12:12:14;;;;;;;3.70;2.50;;;27.50;70.90;;;;;;5050920;28;20580;-80
2022/08/22 12:15:23;;;;;;;7.50;3.10;;;26.50;74.20;;;;;;5050037;28;20501;-82
2022/08/22 12:18:37;;;;;;;2.43;2.33;;;27.40;72.70;;;;;;5058634;28;20412;-80
2022/08/22 12:21:41;;;;;;;3.80;3.60;;;27.60;72.90;;;;;;5050519;28;20637;-81
2022/08/22 12:24:58;;;;;;;3.37;3.07;;;28.80;71.30;;;;;;5043908;28;20486;-80
2022/08/22 12:27:57;;;;;;;3.33;2.80;;;28.80;69.60;;;;;;5076830;28;20303;-84
2022/08/22 12:31:09;;;;;;;2.83;2.63;;;28.80;70.50;;;;;;5081238;28;20181;-82
2022/08/22 12:34:07;;;;;;;4.63;2.75;;;29.40;68.80;;;;;;5071428;28;20262;-81
2022/08/22 12:37:11;;;;;;;2.65;2.45;;;28.80;67.00;;;;;;5103827;28;20545;-83
2022/08/22 12:40:21;;;;;;;7.55;2.58;;;29.70;69.50;;;;;;5114969;28;20176;-83
2022/08/22 12:43:35;;;;;;;3.63;2.97;;;30.10;64.10;;;;;;5119483;27;20192;-83
2022/08/22 12:46:38;;;;;;;3.22;2.40;;;30.40;62.90;;;;;;5120242;28;20223;-84
2022/08/22 12:49:35;;;;;;;3.40;3.17;;;31.00;61.30;;;;;;5118432;28;20192;-83
2022/08/22 12:52:47;;;;;;;2.97;2.60;;;29.20;64.80;;;;;;5096930;28;20201;-82
2022/08/22 12:56:02;;;;;;;3.75;2.80;;;28.30;64.80;;;;;;5084940;28;20184;-82
2022/08/22 12:59:21;;;;;;;4.43;2.95;;;28.50;68.40;;;;;;5111823;28;20199;-83
2022/08/22 13:02:27;;;;;;;2.80;2.60;;;29.30;67.40;;;;;;5054097;28;20337;-83
2022/08/22 13:05:19;;;;;;;4.03;2.87;;;28.90;63.10;;;;;;5006115;28;20197;-83
2022/08/22 13:08:09;;;;;;;3.73;2.53;;;27.40;65.70;;;;;;5004800;28;20466;-84
2022/08/22 13:11:00;;;;;;;2.80;2.60;;;27.80;67.90;;;;;;5002818;28;20863;-81
2022/08/22 13:13:53;;;;;;;3.33;2.57;;;28.70;64.20;;;;;;5000099;28;20467;-83
2022/08/22 13:16:42;;;;;;;3.00;2.70;;;29.70;63.00;;;;;;5007843;28;20240;-83
2022/08/22 13:19:31;;;;;;;2.60;2.40;;;30.10;59.20;;;;;;5007986;28;20196;-83
2022/08/22 13:22:22;;;;;;;4.13;2.60;;;29.10;62.20;;;;;;5013276;28;20211;-81
2022/08/22 13:25:23;;;;;;;4.70;3.25;;;29.50;65.10;;;;;;5014489;28;20195;-81
2022/08/22 13:28:12;;;;;;;2.63;2.42;;;28.10;63.70;;;;;;5001123;28;20199;-82
2022/08/22 13:30:58;;;;;;;2.80;2.17;;;27.90;65.90;;;;;;5059589;28;20182;-83
2022/08/22 13:33:46;;;;;;;3.07;2.77;;;27.90;63.70;;;;;;5111653;27;20457;-83
2022/08/22 13:36:40;;;;;;;5.03;2.90;;;28.20;65.20;;;;;;5101587;28;20419;-79
2022/08/22 13:39:34;;;;;;;3.90;2.90;;;28.50;64.70;;;;;;5110551;28;20212;-81
2022/08/22 13:42:28;;;;;;;4.97;3.42;;;29.00;65.90;;;;;;5097651;28;20200;-83
2022/08/22 13:45:25;;;;;;;7.18;2.67;;;28.60;61.70;;;;;;5069332;28;20250;-79
2022/08/22 13:48:14;;;;;;;2.50;2.33;;;30.20;61.10;;;;;;5092017;28;20243;-80
2022/08/22 13:51:23;;;;;;;3.88;2.60;;;30.40;59.50;;;;;;5093660;28;20312;-82
2022/08/22 13:54:40;;;;;;;3.83;2.50;;;31.80;56.80;;;;;;5085154;28;20189;-81
2022/08/22 13:57:34;;;;;;;3.58;2.70;;;32.00;56.40;;;;;;5079040;28;20227;-82
2022/08/22 14:00:35;;;;;;;2.80;2.60;;;32.30;55.70;;;;;;5076201;28;20201;-82
2022/08/22 14:03:24;;;;;;;4.85;2.90;;;32.10;54.20;;;;;;5090766;28;20238;-82
2022/08/22 14:06:35;;;;;;;3.13;2.85;;;32.20;53.30;;;;;;5093714;28;20195;-82
2022/08/22 14:09:38;;;;;;;3.17;2.97;;;32.80;54.60;;;;;;5091571;28;20169;-81
2022/08/22 14:12:34;;;;;;;2.47;2.28;;;34.00;52.40;;;;;;5069102;28;20229;-83
2022/08/22 14:15:24;;;;;;;3.20;2.92;;;33.90;51.50;;;;;;5088626;28;20260;-83
2022/08/22 14:18:14;;;;;;;2.85;2.60;;;32.70;52.60;;;;;;5085623;28;20185;-81
2022/08/22 14:21:23;;;;;;;3.03;2.50;;;31.50;56.60;;;;;;5081451;28;20235;-80
2022/08/22 14:24:21;;;;;;;4.05;2.58;;;31.50;53.00;;;;;;5095504;28;20247;-82
2022/08/22 14:27:11;;;;;;;2.45;2.25;;;31.70;55.70;;;;;;5092894;28;20327;-81
2022/08/22 14:30:04;;;;;;;2.33;2.13;;;31.50;55.10;;;;;;5108658;28;20259;-83
2022/08/22 14:32:53;;;;;;;3.80;2.45;;;31.80;54.70;;;;;;5086755;28;20221;-83
2022/08/22 14:35:46;;;;;;;6.25;2.65;;;32.90;52.70;;;;;;5100421;28;20184;-83
2022/08/22 14:38:38;;;;;;;2.75;2.47;;;33.20;50.90;;;;;;5095318;28;20261;-82
2022/08/22 14:41:31;;;;;;;4.40;2.60;;;32.10;51.00;;;;;;5092280;28;20169;-82
2022/08/22 14:44:24;;;;;;;2.50;2.15;;;32.50;53.00;;;;;;5092862;28;20269;-82
2022/08/22 14:47:34;;;;;;;4.20;2.42;;;33.20;52.30;;;;;;5104379;28;20168;-83
2022/08/22 14:50:49;;;;;;;2.00;1.90;;;33.50;50.70;;;;;;5045359;28;20203;-82
2022/08/22 14:53:35;;;;;;;2.47;2.33;;;33.40;50.80;;;;;;5056939;28;20269;-82
2022/08/22 14:56:23;;;;;;;2.97;2.55;;;31.90;49.90;;;;;;5053006;28;20230;-80
2022/08/22 14:59:13;;;;;;;3.28;2.72;;;32.20;53.90;;;;;;5048915;28;20260;-81
2022/08/22 15:02:16;;;;;;;3.05;2.63;;;32.50;51.80;;;;;;5062147;28;20217;-81
2022/08/22 15:05:15;;;;;;;2.50;2.00;;;30.50;54.00;;;;;;5049198;28;20182;-82
2022/08/22 15:08:00;;;;;;;4.63;2.83;;;30.30;54.20;;;;;;5065246;28;20185;-82
2022/08/22 15:10:45;;;;;;;2.35;2.15;;;31.50;52.30;;;;;;5056142;28;20199;-83
2022/08/22 15:13:30;;;;;;;3.38;2.55;;;31.50;52.10;;;;;;5058969;28;20647;-82
2022/08/22 15:16:19;;;;;;;4.05;2.25;;;31.00;54.60;;;;;;5064183;28;20185;-81
2022/08/22 15:19:36;;;;;;;4.53;2.63;;;29.40;54.00;;;;;;5095943;28;20193;-81
2022/08/22 15:22:24;;;;;;;3.45;2.42;;;28.70;55.90;;;;;;5112874;28;20791;-82
2022/08/22 15:25:24;;;;;;;3.28;2.95;;;28.60;57.00;;;;;;5116528;28;20579;-81
2022/08/22 15:28:19;;;;;;;3.83;2.50;;;28.30;58.50;;;;;;5112022;28;20222;-80
2022/08/22 15:31:13;;;;;;;5.90;3.30;;;28.00;59.60;;;;;;5107164;28;20399;-82
2022/08/22 15:34:10;;;;;;;3.03;2.83;;;28.10;60.90;;;;;;5111894;28;20500;-83
2022/08/22 15:37:31;;;;;;;2.73;2.43;;;27.70;60.10;;;;;;5128851;28;20399;-82
2022/08/22 15:40:36;;;;;;;2.67;2.47;;;27.30;62.70;;;;;;5125780;28;20469;-81
2022/08/22 15:43:29;;;;;;;6.20;2.73;;;27.20;62.80;;;;;;5126112;28;20387;-82